| time (UTC) | temp F | wind direction | speed MPH | gust MPH | rain 1hr in | rain 24hr in | rain mn in | humidity % | barometer mb |
| 20260510013516 | 69 | 153 | 0.0 | 0.0 | 0.00 | 1.69 | 1.69 | 90 | 1009.0 |
| 20260510013016 | 69 | 153 | 0.0 | 1.0 | 0.00 | 1.69 | 1.69 | 89 | 1009.0 |
| 20260510012516 | 70 | 153 | 0.0 | 1.0 | 0.00 | 1.69 | 1.69 | 89 | 1008.9 |
| 20260510012015 | 69 | 153 | 0.0 | 3.0 | 0.00 | 1.69 | 1.69 | 89 | 1009.0 |
| 20260510011516 | 69 | 153 | 0.0 | 3.0 | 0.00 | 1.69 | 1.69 | 89 | 1009.1 |
| 20260510011015 | 69 | 153 | 0.0 | 2.0 | 0.01 | 1.69 | 1.69 | 89 | 1009.0 |
| 20260510010515 | 69 | 153 | 0.0 | 1.0 | 0.06 | 1.69 | 1.69 | 88 | 1008.6 |
| 20260510010015 | 69 | 153 | 0.0 | 1.0 | 0.18 | 1.69 | 1.69 | 88 | 1008.7 |
| 20260510005515 | 69 | 153 | 0.0 | 1.0 | 0.62 | 1.69 | 1.69 | 88 | 1008.8 |
| 20260510005014 | 69 | 153 | 0.0 | 2.0 | 1.12 | 1.69 | 1.69 | 88 | 1008.5 |
| 20260510004517 | 69 | 153 | 0.0 | 2.0 | 1.43 | 1.69 | 1.69 | 87 | 1008.7 |
| 20260510004014 | 69 | 153 | 1.0 | 4.0 | 1.46 | 1.69 | 1.69 | 86 | 1008.6 |
| 20260510003514 | 69 | 153 | 0.0 | 4.0 | 1.51 | 1.69 | 1.69 | 86 | 1008.6 |
| 20260510003014 | 69 | 272 | 0.0 | 4.0 | 1.64 | 1.69 | 1.69 | 86 | 1008.6 |
| 20260510002514 | 69 | 222 | 0.0 | 6.0 | 1.68 | 1.69 | 1.69 | 85 | 1008.6 |
| 20260510002013 | 69 | 172 | 4.0 | 6.0 | 1.68 | 1.69 | 1.69 | 83 | 1008.5 |
| 20260510001513 | 69 | 178 | 2.0 | 9.0 | 1.68 | 1.69 | 1.69 | 82 | 1008.7 |
| 20260510001015 | 69 | 109 | 5.0 | 10.0 | 1.66 | 1.67 | 1.67 | 81 | 1009.0 |
| 20260510000514 | 69 | 150 | 5.0 | 19.0 | 1.61 | 1.62 | 1.62 | 78 | 1009.0 |
| 20260510000017 | 70 | 167 | 9.0 | 19.0 | 1.49 | 1.49 | 1.49 | 73 | 1009.4 |
| 20260509235510 | 71 | 169 | 3.0 | 14.0 | 0.95 | 0.95 | 0.95 | 77 | 1011.4 |
| 20260509235009 | 74 | 92 | 3.0 | 14.0 | 0.49 | 0.49 | 0.49 | 77 | 1010.2 |
| 20260509234508 | 77 | 183 | 2.0 | 8.0 | 0.25 | 0.25 | 0.25 | 76 | 1009.2 |
| 20260509234007 | 79 | 186 | 0.0 | 7.0 | 0.23 | 0.23 | 0.23 | 77 | 1008.8 |
| 20260509233506 | 80 | 293 | 2.0 | 8.0 | 0.16 | 0.16 | 0.16 | 78 | 1008.6 |
| 20260509233006 | 81 | 237 | 4.0 | 8.0 | 0.04 | 0.04 | 0.04 | 76 | 1008.1 |
| 20260509232506 | 82 | 188 | 1.0 | 4.0 | 0.01 | 0.01 | 0.01 | 75 | 1008.1 |
| 20260509232007 | 83 | 188 | 1.0 | 7.0 | 0.01 | 0.01 | 0.01 | 74 | 1008.2 |
| 20260509231506 | 83 | 174 | 1.0 | 7.0 | 0.01 | 0.01 | 0.01 | 74 | 1008.0 |
| 20260509231005 | 84 | 175 | 3.0 | 6.0 | 0.01 | 0.01 | 0.01 | 72 | 1008.2 |
| 20260509230505 | 86 | 164 | 2.0 | 5.0 | 0.01 | 0.01 | 0.01 | 71 | 1008.1 |
| 20260509230006 | 87 | 159 | 2.0 | 5.0 | 0.00 | 0.00 | 0.00 | 66 | 1008.0 |
| 20260509225506 | 88 | 157 | 2.0 | 5.0 | 0.00 | 0.00 | 0.00 | 62 | 1007.9 |
| 20260509225005 | 88 | 113 | 1.0 | 3.0 | 0.00 | 0.00 | 0.00 | 59 | 1007.7 |
| 20260509224505 | 88 | 113 | 0.0 | 3.0 | 0.00 | 0.00 | 0.00 | 59 | 1007.7 |
| 20260509224006 | 88 | 113 | 1.0 | 3.0 | 0.00 | 0.00 | 0.00 | 59 | 1007.8 |
| 20260509223505 | 88 | 113 | 0.0 | 3.0 | 0.00 | 0.00 | 0.00 | 59 | 1007.8 |
| 20260509223004 | 88 | 113 | 1.0 | 4.0 | 0.00 | 0.00 | 0.00 | 60 | 1007.8 |
| 20260509222504 | 88 | 130 | 1.0 | 6.0 | 0.00 | 0.00 | 0.00 | 60 | 1007.7 |
| 20260509222006 | 88 | 108 | 2.0 | 6.0 | 0.00 | 0.00 | 0.00 | 58 | 1007.7 |
| 20260509221504 | 89 | 113 | 2.0 | 5.0 | 0.00 | 0.00 | 0.00 | 58 | 1007.6 |
| 20260509221004 | 89 | 126 | 1.0 | 6.0 | 0.00 | 0.00 | 0.00 | 59 | 1007.7 |
| 20260509220503 | 88 | 130 | 2.0 | 6.0 | 0.00 | 0.00 | 0.00 | 60 | 1007.7 |
| 20260509220003 | 88 | 123 | 3.0 | 6.0 | 0.00 | 0.00 | 0.00 | 60 | 1007.6 |
| 20260509215503 | 88 | 109 | 3.0 | 6.0 | 0.00 | 0.00 | 0.00 | 59 | 1007.7 |
| 20260509215003 | 88 | 128 | 2.0 | 6.0 | 0.00 | 0.00 | 0.00 | 58 | 1007.6 |
| 20260509214502 | 89 | 125 | 2.0 | 6.0 | 0.00 | 0.00 | 0.00 | 58 | 1007.7 |
| 20260509214003 | 89 | 137 | 2.0 | 4.0 | 0.00 | 0.00 | 0.00 | 58 | 1007.6 |
| 20260509213501 | 90 | 134 | 2.0 | 5.0 | 0.00 | 0.00 | 0.00 | 57 | 1007.6 |
| 20260509213002 | 91 | 25 | 1.0 | 5.0 | 0.00 | 0.00 | 0.00 | 55 | 1007.6 |
| 20260509212500 | 92 | 355 | 2.0 | 6.0 | 0.00 | 0.00 | 0.00 | 55 | 1007.7 |
| 20260509212100 | 92 | 355 | 2.0 | 6.0 | 0.00 | 0.00 | 0.00 | 55 | 1007.7 |
| 20260509211601 | 91 | 265 | 1.0 | 3.0 | 0.00 | 0.00 | 0.00 | 55 | 1007.7 |
| 20260509211104 | 91 | 264 | 1.0 | 3.0 | 0.00 | 0.00 | 0.00 | 57 | 1007.7 |
| 20260509210600 | 91 | 263 | 0.0 | 3.0 | 0.00 | 0.00 | 0.00 | 55 | 1007.8 |
| 20260509210115 | 92 | 298 | 1.0 | 5.0 | 0.00 | 0.00 | 0.00 | 56 | 1007.9 |
| 20260509205557 | 92 | 299 | 1.0 | 5.0 | 0.00 | 0.00 | 0.00 | 55 | 1008.0 |
| 20260509205057 | 92 | 311 | 1.0 | 8.0 | 0.00 | 0.00 | 0.00 | 54 | 1008.1 |
| 20260509204559 | 92 | 313 | 3.0 | 8.0 | 0.00 | 0.00 | 0.00 | 54 | 1008.2 |
| 20260509204056 | 92 | 327 | 1.0 | 6.0 | 0.00 | 0.00 | 0.00 | 52 | 1008.3 |
| 20260509203555 | 93 | 305 | 2.0 | 6.0 | 0.00 | 0.00 | 0.00 | 53 | 1008.3 |
| 20260509203055 | 93 | 11 | 2.0 | 6.0 | 0.00 | 0.00 | 0.00 | 52 | 1008.3 |
| 20260509202554 | 93 | 302 | 3.0 | 5.0 | 0.00 | 0.00 | 0.00 | 52 | 1008.3 |
| 20260509202054 | 93 | 278 | 0.0 | 3.0 | 0.00 | 0.00 | 0.00 | 52 | 1008.4 |
| 20260509201600 | 93 | 245 | 0.0 | 3.0 | 0.00 | 0.00 | 0.00 | 51 | 1008.4 |
| 20260509201052 | 94 | 254 | 0.0 | 3.0 | 0.00 | 0.00 | 0.00 | 50 | 1008.6 |
| 20260509200551 | 93 | 330 | 0.0 | 3.0 | 0.00 | 0.00 | 0.00 | 51 | 1008.6 |
| 20260509200100 | 93 | 330 | 0.0 | 6.0 | 0.00 | 0.00 | 0.00 | 52 | 1008.6 |
| 20260509195548 | 93 | 28 | 1.0 | 6.0 | 0.00 | 0.00 | 0.00 | 50 | 1008.7 |
| 20260509195048 | 93 | 267 | 1.0 | 6.0 | 0.00 | 0.00 | 0.00 | 53 | 1008.8 |
| 20260509194547 | 92 | 303 | 2.0 | 6.0 | 0.00 | 0.00 | 0.00 | 52 | 1008.8 |
| 20260509194046 | 93 | 325 | 1.0 | 4.0 | 0.00 | 0.00 | 0.00 | 52 | 1008.9 |
| 20260509193546 | 92 | 328 | 2.0 | 4.0 | 0.00 | 0.00 | 0.00 | 52 | 1008.9 |
| 20260509193046 | 92 | 342 | 1.0 | 4.0 | 0.00 | 0.00 | 0.00 | 53 | 1008.9 |
| 20260509192545 | 92 | 32 | 1.0 | 6.0 | 0.00 | 0.00 | 0.00 | 52 | 1008.9 |
| 20260509192046 | 92 | 335 | 1.0 | 6.0 | 0.00 | 0.00 | 0.00 | 52 | 1008.9 |
| 20260509191545 | 92 | 19 | 1.0 | 4.0 | 0.00 | 0.00 | 0.00 | 52 | 1008.9 |
| 20260509191046 | 92 | 329 | 1.0 | 4.0 | 0.00 | 0.00 | 0.00 | 53 | 1009.0 |
| 20260509190544 | 92 | 17 | 1.0 | 6.0 | 0.00 | 0.00 | 0.00 | 54 | 1009.0 |
| 20260509190051 | 93 | 344 | 3.0 | 6.0 | 0.00 | 0.00 | 0.00 | 52 | 1009.0 |
| 20260509185543 | 92 | 339 | 1.0 | 4.0 | 0.00 | 0.00 | 0.00 | 54 | 1009.1 |
| 20260509185042 | 92 | 331 | 0.0 | 3.0 | 0.00 | 0.00 | 0.00 | 54 | 1009.2 |
| 20260509184540 | 91 | 329 | 1.0 | 4.0 | 0.00 | 0.00 | 0.00 | 56 | 1009.2 |
| 20260509184039 | 92 | 178 | 1.0 | 5.0 | 0.00 | 0.00 | 0.00 | 55 | 1009.2 |
| 20260509183538 | 91 | 265 | 0.0 | 4.0 | 0.00 | 0.00 | 0.00 | 57 | 1009.4 |
| 20260509183039 | 90 | 170 | 0.0 | 4.0 | 0.00 | 0.00 | 0.00 | 57 | 1009.5 |
| 20260509182537 | 89 | 246 | 0.0 | 5.0 | 0.00 | 0.00 | 0.00 | 58 | 1009.6 |
| 20260509182035 | 88 | 155 | 0.0 | 5.0 | 0.00 | 0.00 | 0.00 | 61 | 1009.6 |
| 20260509181538 | 88 | 182 | 1.0 | 5.0 | 0.00 | 0.00 | 0.00 | 60 | 1009.7 |
| 20260509181035 | 88 | 188 | 1.0 | 7.0 | 0.00 | 0.00 | 0.00 | 62 | 1009.7 |
| 20260509180535 | 88 | 166 | 4.0 | 7.0 | 0.00 | 0.00 | 0.00 | 60 | 1009.8 |
| 20260509180035 | 89 | 174 | 0.0 | 7.0 | 0.00 | 0.00 | 0.00 | 59 | 1010.0 |
| 20260509175534 | 89 | 312 | 1.0 | 7.0 | 0.00 | 0.00 | 0.00 | 61 | 1010.1 |
| 20260509175033 | 89 | 227 | 1.0 | 9.0 | 0.00 | 0.00 | 0.00 | 62 | 1010.1 |
| 20260509174532 | 88 | 149 | 0.0 | 9.0 | 0.00 | 0.00 | 0.00 | 64 | 1010.2 |
| 20260509174031 | 87 | 116 | 2.0 | 8.0 | 0.00 | 0.00 | 0.00 | 66 | 1010.3 |
| 20260509173532 | 86 | 189 | 4.0 | 9.0 | 0.00 | 0.00 | 0.00 | 65 | 1010.4 |
| 20260509173028 | 86 | 187 | 3.0 | 9.0 | 0.00 | 0.00 | 0.00 | 68 | 1010.5 |
| 20260509172527 | 85 | 183 | 1.0 | 11.0 | 0.00 | 0.00 | 0.00 | 71 | 1010.4 |
| 20260509172027 | 84 | 151 | 6.0 | 11.0 | 0.00 | 0.00 | 0.00 | 70 | 1010.4 |
| 20260509171535 | 84 | 138 | 3.0 | 8.0 | 0.00 | 0.00 | 0.00 | 70 | 1010.5 |
| 20260509171026 | 84 | 173 | 2.0 | 7.0 | 0.00 | 0.00 | 0.00 | 70 | 1010.5 |
| 20260509170528 | 84 | 173 | 4.0 | 7.0 | 0.00 | 0.00 | 0.00 | 73 | 1010.8 |
| 20260509170030 | 84 | 148 | 1.0 | 6.0 | 0.00 | 0.00 | 0.00 | 73 | 1010.8 |
| 20260509165525 | 84 | 162 | 1.0 | 6.0 | 0.00 | 0.00 | 0.00 | 72 | 1010.9 |
| 20260509165026 | 84 | 159 | 1.0 | 5.0 | 0.00 | 0.00 | 0.00 | 74 | 1010.8 |
| 20260509164522 | 84 | 171 | 1.0 | 5.0 | 0.00 | 0.00 | 0.00 | 74 | 1010.8 |
| 20260509164024 | 83 | 163 | 1.0 | 5.0 | 0.00 | 0.00 | 0.00 | 77 | 1010.8 |
| 20260509163518 | 81 | 100 | 1.0 | 4.0 | 0.00 | 0.00 | 0.00 | 78 | 1010.9 |
| 20260509163017 | 80 | 15 | 0.0 | 2.0 | 0.00 | 0.00 | 0.00 | 79 | 1010.8 |
| 20260509162516 | 80 | 11 | 0.0 | 2.0 | 0.00 | 0.00 | 0.00 | 80 | 1010.8 |
| 20260509162016 | 80 | 11 | 0.0 | 2.0 | 0.00 | 0.00 | 0.00 | 81 | 1010.8 |
| 20260509161515 | 80 | 11 | 1.0 | 4.0 | 0.00 | 0.00 | 0.00 | 82 | 1010.7 |
| 20260509161013 | 79 | 355 | 0.0 | 4.0 | 0.00 | 0.00 | 0.00 | 82 | 1010.8 |
| 20260509160513 | 79 | 9 | 1.0 | 3.0 | 0.00 | 0.00 | 0.00 | 83 | 1010.8 |
| 20260509160013 | 79 | 157 | 0.0 | 3.0 | 0.00 | 0.00 | 0.00 | 83 | 1010.8 |
| 20260509155513 | 78 | 157 | 0.0 | 3.0 | 0.00 | 0.00 | 0.00 | 83 | 1010.9 |
| 20260509155011 | 78 | 157 | 0.0 | 2.0 | 0.00 | 0.00 | 0.00 | 84 | 1010.8 |
| 20260509154516 | 78 | 157 | 0.0 | 2.0 | 0.00 | 0.00 | 0.00 | 85 | 1010.8 |
| 20260509154011 | 78 | 157 | 0.0 | 2.0 | 0.00 | 0.00 | 0.00 | 85 | 1010.7 |
| 20260509153511 | 78 | 157 | 0.0 | 2.0 | 0.00 | 0.00 | 0.00 | 85 | 1010.8 |
| 20260509153009 | 78 | 157 | 0.0 | 3.0 | 0.00 | 0.00 | 0.00 | 86 | 1010.6 |
| 20260509152509 | 78 | 157 | 0.0 | 3.0 | 0.00 | 0.00 | 0.00 | 86 | 1010.6 |
| 20260509152009 | 78 | 157 | 0.0 | 2.0 | 0.00 | 0.00 | 0.00 | 87 | 1010.8 |
| 20260509151507 | 77 | 157 | 0.0 | 3.0 | 0.00 | 0.00 | 0.00 | 87 | 1010.8 |
| 20260509151006 | 77 | 157 | 1.0 | 3.0 | 0.00 | 0.00 | 0.00 | 87 | 1010.6 |
| 20260509150507 | 77 | 157 | 0.0 | 3.0 | 0.00 | 0.00 | 0.00 | 87 | 1010.6 |
| 20260509150015 | 77 | 157 | 0.0 | 3.0 | 0.00 | 0.00 | 0.00 | 88 | 1010.6 |
| 20260509145505 | 77 | 157 | 0.0 | 3.0 | 0.00 | 0.00 | 0.00 | 89 | 1010.4 |
| 20260509145004 | 76 | 157 | 1.0 | 3.0 | 0.00 | 0.00 | 0.00 | 89 | 1010.4 |
| 20260509144502 | 76 | 157 | 1.0 | 2.0 | 0.00 | 0.00 | 0.00 | 89 | 1010.4 |
| 20260509144001 | 76 | 157 | 0.0 | 2.0 | 0.00 | 0.00 | 0.00 | 90 | 1010.2 |
| 20260509143501 | 76 | 157 | 0.0 | 2.0 | 0.00 | 0.00 | 0.00 | 90 | 1010.2 |
| 20260509143001 | 76 | 157 | 0.0 | 1.0 | 0.00 | 0.00 | 0.00 | 90 | 1010.2 |
| 20260509142600 | 75 | 157 | 0.0 | 2.0 | 0.00 | 0.00 | 0.00 | 91 | 1010.1 |
| 20260509142059 | 75 | 157 | 0.0 | 2.0 | 0.00 | 0.00 | 0.00 | 92 | 1010.0 |
| 20260509141600 | 75 | 157 | 0.0 | 1.0 | 0.00 | 0.00 | 0.00 | 92 | 1009.8 |
| 20260509141100 | 75 | 157 | 0.0 | 2.0 | 0.00 | 0.00 | 0.00 | 92 | 1009.9 |
| 20260509140558 | 75 | 157 | 0.0 | 3.0 | 0.00 | 0.00 | 0.00 | 91 | 1009.8 |
| 20260509140104 | 75 | 157 | 1.0 | 5.0 | 0.00 | 0.00 | 0.00 | 91 | 1009.6 |
| 20260509135558 | 75 | 157 | 1.0 | 5.0 | 0.00 | 0.00 | 0.00 | 92 | 1009.6 |
| 20260509135057 | 75 | 157 | 1.0 | 3.0 | 0.00 | 0.00 | 0.00 | 92 | 1009.9 |
| 20260509134626 | 75 | 157 | 0.0 | 1.0 | 0.00 | 0.00 | 0.00 | 92 | 1010.0 |
| 20260509134059 | 75 | 157 | 0.0 | 1.0 | 0.00 | 0.00 | 0.00 | 92 | 1010.3 |
| 20260509133557 | 75 | 157 | 0.0 | 5.0 | 0.00 | 0.00 | 0.00 | 92 | 1010.6 |
| 20260509133059 | 75 | 157 | 2.0 | 5.0 | 0.00 | 0.00 | 0.00 | 92 | 1010.5 |
| 20260509132656 | 75 | 157 | 2.0 | 5.0 | 0.00 | 0.00 | 0.00 | 93 | 1010.4 |
| 20260509132056 | 75 | 149 | 0.0 | 3.0 | 0.00 | 0.00 | 0.00 | 93 | 1010.8 |
| 20260509131555 | 75 | 149 | 1.0 | 5.0 | 0.00 | 0.00 | 0.00 | 93 | 1010.7 |
| 20260509131054 | 74 | 148 | 1.0 | 5.0 | 0.00 | 0.00 | 0.00 | 93 | 1010.8 |
| 20260509130554 | 74 | 148 | 1.0 | 2.0 | 0.00 | 0.00 | 0.00 | 94 | 1011.0 |
| 20260509130054 | 74 | 148 | 0.0 | 1.0 | 0.00 | 0.00 | 0.00 | 94 | 1011.3 |
| 20260509125553 | 74 | 148 | 0.0 | 2.0 | 0.00 | 0.00 | 0.00 | 94 | 1011.1 |
| 20260509125051 | 74 | 148 | 0.0 | 3.0 | 0.00 | 0.00 | 0.00 | 94 | 1010.7 |
| 20260509124551 | 74 | 148 | 0.0 | 3.0 | 0.00 | 0.00 | 0.00 | 94 | 1010.5 |
| 20260509124050 | 74 | 148 | 1.0 | 3.0 | 0.00 | 0.00 | 0.00 | 94 | 1010.6 |
| 20260509123549 | 74 | 148 | 0.0 | 2.0 | 0.00 | 0.00 | 0.00 | 94 | 1010.7 |
| 20260509123051 | 74 | 148 | 0.0 | 1.0 | 0.00 | 0.00 | 0.00 | 94 | 1010.7 |
| 20260509122549 | 74 | 148 | 0.0 | 1.0 | 0.00 | 0.00 | 0.00 | 94 | 1010.5 |
| 20260509122048 | 73 | 148 | 0.0 | 1.0 | 0.00 | 0.00 | 0.00 | 94 | 1010.5 |
| 20260509121552 | 73 | 148 | 0.0 | 1.0 | 0.00 | 0.00 | 0.00 | 94 | 1010.6 |
| 20260509121049 | 73 | 148 | 0.0 | 1.0 | 0.00 | 0.00 | 0.00 | 94 | 1010.7 |
| 20260509120549 | 73 | 148 | 0.0 | 1.0 | 0.00 | 0.00 | 0.00 | 94 | 1010.7 |
| 20260509120049 | 73 | 148 | 0.0 | 1.0 | 0.00 | 0.00 | 0.00 | 94 | 1010.6 |
| 20260509115547 | 73 | 148 | 0.0 | 1.0 | 0.00 | 0.00 | 0.00 | 94 | 1010.6 |
| 20260509115047 | 73 | 148 | 0.0 | 0.0 | 0.00 | 0.00 | 0.00 | 94 | 1010.2 |
| 20260509114547 | 73 | 148 | 0.0 | 2.0 | 0.00 | 0.00 | 0.00 | 94 | 1010.3 |
| 20260509114047 | 73 | 148 | 0.0 | 2.0 | 0.00 | 0.00 | 0.00 | 93 | 1010.5 |
| 20260509113547 | 73 | 148 | 0.0 | 1.0 | 0.00 | 0.00 | 0.00 | 93 | 1010.5 |
| 20260509113051 | 73 | 148 | 0.0 | 2.0 | 0.00 | 0.00 | 0.00 | 93 | 1010.4 |
| 20260509112548 | 73 | 148 | 0.0 | 2.0 | 0.00 | 0.00 | 0.00 | 93 | 1010.4 |
| 20260509112046 | 73 | 148 | 0.0 | 2.0 | 0.00 | 0.00 | 0.00 | 93 | 1010.5 |
| 20260509111546 | 73 | 148 | 1.0 | 2.0 | 0.00 | 0.00 | 0.00 | 93 | 1010.4 |
| 20260509111045 | 73 | 148 | 1.0 | 2.0 | 0.00 | 0.00 | 0.00 | 93 | 1010.3 |
| 20260509110548 | 73 | 148 | 0.0 | 2.0 | 0.00 | 0.00 | 0.00 | 93 | 1010.2 |
| 20260509110045 | 73 | 148 | 0.0 | 1.0 | 0.00 | 0.00 | 0.00 | 93 | 1010.1 |
| 20260509105545 | 73 | 148 | 0.0 | 1.0 | 0.00 | 0.00 | 0.00 | 93 | 1010.0 |
| 20260509105044 | 73 | 148 | 0.0 | 1.0 | 0.00 | 0.00 | 0.00 | 93 | 1009.9 |
| 20260509104544 | 73 | 148 | 0.0 | 2.0 | 0.00 | 0.00 | 0.00 | 93 | 1009.8 |
| 20260509104043 | 73 | 148 | 0.0 | 2.0 | 0.00 | 0.00 | 0.00 | 93 | 1009.8 |
| 20260509103543 | 73 | 148 | 0.0 | 3.0 | 0.00 | 0.00 | 0.00 | 93 | 1009.7 |
| 20260509103044 | 73 | 148 | 1.0 | 3.0 | 0.00 | 0.00 | 0.00 | 93 | 1009.7 |
| 20260509102543 | 73 | 148 | 1.0 | 2.0 | 0.00 | 0.00 | 0.00 | 93 | 1009.8 |
| 20260509102043 | 73 | 148 | 0.0 | 1.0 | 0.00 | 0.00 | 0.00 | 93 | 1009.9 |
| 20260509101551 | 73 | 148 | 0.0 | 2.0 | 0.00 | 0.00 | 0.00 | 93 | 1010.0 |
| 20260509101042 | 73 | 148 | 0.0 | 2.0 | 0.00 | 0.00 | 0.00 | 93 | 1009.8 |
| 20260509100542 | 73 | 148 | 0.0 | 1.0 | 0.00 | 0.00 | 0.00 | 93 | 1009.8 |
| 20260509100042 | 74 | 148 | 0.0 | 1.0 | 0.00 | 0.00 | 0.00 | 93 | 1009.8 |
| 20260509095542 | 74 | 148 | 0.0 | 1.0 | 0.00 | 0.00 | 0.00 | 93 | 1009.7 |
| 20260509095042 | 74 | 148 | 0.0 | 1.0 | 0.00 | 0.00 | 0.00 | 93 | 1009.6 |
| 20260509094543 | 74 | 148 | 0.0 | 1.0 | 0.00 | 0.00 | 0.00 | 93 | 1009.5 |
| 20260509094041 | 74 | 148 | 0.0 | 1.0 | 0.00 | 0.00 | 0.00 | 93 | 1009.5 |
| 20260509093540 | 74 | 148 | 0.0 | 1.0 | 0.00 | 0.00 | 0.00 | 93 | 1009.4 |
| 20260509093041 | 74 | 148 | 0.0 | 1.0 | 0.00 | 0.00 | 0.00 | 93 | 1009.4 |
| 20260509092540 | 74 | 148 | 0.0 | 1.0 | 0.00 | 0.00 | 0.00 | 93 | 1009.4 |
| 20260509092043 | 74 | 148 | 0.0 | 1.0 | 0.00 | 0.00 | 0.00 | 93 | 1009.5 |
| 20260509091540 | 74 | 148 | 0.0 | 1.0 | 0.00 | 0.00 | 0.00 | 93 | 1009.7 |
| 20260509091043 | 74 | 148 | 0.0 | 0.0 | 0.00 | 0.00 | 0.00 | 93 | 1009.9 |
| 20260509090539 | 74 | 148 | 0.0 | 1.0 | 0.00 | 0.00 | 0.00 | 93 | 1009.9 |
| 20260509090039 | 74 | 148 | 0.0 | 1.0 | 0.00 | 0.00 | 0.00 | 93 | 1010.0 |
| 20260509085539 | 74 | 148 | 0.0 | 2.0 | 0.00 | 0.00 | 0.00 | 93 | 1009.9 |
| 20260509085039 | 74 | 148 | 0.0 | 2.0 | 0.00 | 0.00 | 0.00 | 93 | 1009.9 |
| 20260509084539 | 74 | 148 | 0.0 | 2.0 | 0.00 | 0.00 | 0.00 | 93 | 1010.0 |
| 20260509084039 | 74 | 148 | 0.0 | 1.0 | 0.00 | 0.00 | 0.00 | 93 | 1009.9 |
| 20260509083537 | 74 | 148 | 0.0 | 1.0 | 0.00 | 0.00 | 0.00 | 93 | 1009.7 |
| 20260509083045 | 74 | 148 | 0.0 | 1.0 | 0.00 | 0.00 | 0.00 | 93 | 1009.8 |
| 20260509082537 | 74 | 148 | 0.0 | 1.0 | 0.00 | 0.00 | 0.00 | 93 | 1009.7 |
| 20260509082037 | 74 | 148 | 0.0 | 2.0 | 0.00 | 0.00 | 0.00 | 93 | 1009.8 |
| 20260509081538 | 74 | 148 | 0.0 | 2.0 | 0.00 | 0.00 | 0.00 | 93 | 1009.6 |
| 20260509081038 | 74 | 148 | 0.0 | 2.0 | 0.00 | 0.00 | 0.00 | 93 | 1009.6 |
| 20260509080537 | 74 | 148 | 0.0 | 2.0 | 0.00 | 0.00 | 0.00 | 93 | 1009.7 |
| 20260509080037 | 74 | 148 | 0.0 | 3.0 | 0.00 | 0.00 | 0.00 | 93 | 1009.7 |
| 20260509075538 | 74 | 148 | 0.0 | 3.0 | 0.00 | 0.00 | 0.00 | 93 | 1009.8 |
| 20260509075034 | 74 | 148 | 0.0 | 3.0 | 0.00 | 0.00 | 0.00 | 93 | 1009.7 |
| 20260509074531 | 74 | 148 | 1.0 | 3.0 | 0.00 | 0.00 | 0.00 | 93 | 1009.7 |
| 20260509074029 | 74 | 148 | 1.0 | 5.0 | 0.00 | 0.00 | 0.00 | 93 | 1009.6 |
| 20260509073531 | 74 | 163 | 3.0 | 7.0 | 0.00 | 0.00 | 0.00 | 93 | 1009.4 |
| 20260509073027 | 74 | 165 | 3.0 | 7.0 | 0.00 | 0.00 | 0.00 | 93 | 1009.5 |
| 20260509072527 | 74 | 146 | 2.0 | 5.0 | 0.00 | 0.00 | 0.00 | 93 | 1009.4 |
| 20260509072028 | 74 | 134 | 2.0 | 5.0 | 0.00 | 0.00 | 0.00 | 93 | 1009.7 |
| 20260509071525 | 74 | 161 | 3.0 | 5.0 | 0.00 | 0.00 | 0.00 | 93 | 1009.9 |
| 20260509071025 | 74 | 132 | 2.0 | 4.0 | 0.00 | 0.00 | 0.00 | 93 | 1009.9 |
| 20260509070526 | 74 | 129 | 1.0 | 3.0 | 0.00 | 0.00 | 0.00 | 93 | 1010.1 |
| 20260509070023 | 74 | 129 | 1.0 | 2.0 | 0.00 | 0.00 | 0.00 | 93 | 1010.1 |
| 20260509065522 | 74 | 129 | 0.0 | 2.0 | 0.00 | 0.00 | 0.00 | 92 | 1010.1 |
| 20260509065022 | 74 | 129 | 0.0 | 2.0 | 0.00 | 0.00 | 0.00 | 92 | 1010.2 |
| 20260509064520 | 74 | 129 | 0.0 | 2.0 | 0.00 | 0.00 | 0.00 | 93 | 1010.1 |
| 20260509064021 | 74 | 129 | 0.0 | 1.0 | 0.00 | 0.00 | 0.00 | 92 | 1010.2 |
| 20260509063521 | 74 | 129 | 0.0 | 2.0 | 0.00 | 0.00 | 0.00 | 93 | 1010.2 |
| 20260509063018 | 74 | 129 | 0.0 | 2.0 | 0.00 | 0.00 | 0.00 | 93 | 1010.0 |
| 20260509062517 | 74 | 129 | 0.0 | 2.0 | 0.00 | 0.00 | 0.00 | 92 | 1010.2 |
| 20260509062018 | 74 | 129 | 0.0 | 2.0 | 0.00 | 0.00 | 0.00 | 92 | 1010.3 |
| 20260509061516 | 74 | 129 | 0.0 | 3.0 | 0.00 | 0.00 | 0.00 | 92 | 1010.4 |
| 20260509061016 | 74 | 129 | 0.0 | 3.0 | 0.00 | 0.00 | 0.00 | 92 | 1010.3 |
| 20260509060516 | 74 | 129 | 0.0 | 3.0 | 0.00 | 0.00 | 0.00 | 92 | 1010.2 |
| 20260509060016 | 74 | 129 | 1.0 | 3.0 | 0.00 | 0.00 | 0.00 | 92 | 1010.2 |
| 20260509055515 | 74 | 129 | 1.0 | 4.0 | 0.00 | 0.00 | 0.00 | 92 | 1010.3 |
| 20260509055014 | 74 | 129 | 1.0 | 4.0 | 0.00 | 0.00 | 0.00 | 92 | 1010.4 |
| 20260509054513 | 74 | 124 | 2.0 | 4.0 | 0.00 | 0.00 | 0.00 | 92 | 1010.5 |
| 20260509054013 | 74 | 115 | 1.0 | 4.0 | 0.00 | 0.00 | 0.00 | 92 | 1010.4 |
| 20260509053514 | 74 | 114 | 0.0 | 3.0 | 0.00 | 0.00 | 0.00 | 92 | 1010.4 |
| 20260509053013 | 74 | 114 | 1.0 | 3.0 | 0.00 | 0.00 | 0.00 | 92 | 1010.3 |
| 20260509052514 | 74 | 96 | 0.0 | 4.0 | 0.00 | 0.00 | 0.00 | 92 | 1010.4 |
| 20260509052011 | 74 | 96 | 1.0 | 4.0 | 0.00 | 0.00 | 0.00 | 92 | 1010.4 |
| 20260509051514 | 73 | 118 | 1.0 | 4.0 | 0.00 | 0.00 | 0.00 | 92 | 1010.4 |
| 20260509051009 | 73 | 117 | 1.0 | 3.0 | 0.00 | 0.00 | 0.00 | 91 | 1010.4 |
| 20260509050508 | 73 | 117 | 0.0 | 4.0 | 0.00 | 0.00 | 0.00 | 91 | 1010.4 |
| 20260509050006 | 73 | 117 | 1.0 | 4.0 | 0.00 | 0.00 | 0.00 | 91 | 1010.5 |
| 20260509045507 | 73 | 113 | 0.0 | 4.0 | 0.00 | 0.00 | 0.00 | 91 | 1010.4 |
| 20260509045006 | 73 | 114 | 2.0 | 6.0 | 0.00 | 0.00 | 0.00 | 91 | 1010.4 |
| 20260509044505 | 73 | 116 | 2.0 | 6.0 | 0.00 | 0.00 | 0.00 | 91 | 1010.5 |
| 20260509044006 | 73 | 119 | 1.0 | 4.0 | 0.00 | 0.00 | 0.00 | 91 | 1010.6 |
| 20260509043508 | 73 | 119 | 1.0 | 4.0 | 0.00 | 0.00 | 0.00 | 91 | 1010.6 |
| 20260509043005 | 73 | 165 | 1.0 | 5.0 | 0.00 | 0.00 | 0.00 | 91 | 1010.6 |
| 20260509042505 | 73 | 165 | 1.0 | 5.0 | 0.00 | 0.00 | 0.00 | 91 | 1010.6 |
| 20260509042005 | 73 | 168 | 2.0 | 5.0 | 0.00 | 0.00 | 0.00 | 91 | 1010.5 |
| 20260509041505 | 73 | 146 | 2.0 | 4.0 | 0.00 | 0.00 | 0.00 | 91 | 1010.5 |
| 20260509041005 | 73 | 99 | 1.0 | 4.0 | 0.00 | 0.00 | 0.00 | 91 | 1010.5 |
| 20260509040504 | 73 | 151 | 1.0 | 5.0 | 0.00 | 0.00 | 0.00 | 91 | 1010.5 |
| 20260509040005 | 73 | 151 | 1.0 | 6.0 | 0.00 | 0.00 | 0.00 | 91 | 1010.4 |
| 20260509035508 | 73 | 151 | 2.0 | 6.0 | 0.00 | 0.00 | 0.00 | 91 | 1010.3 |
| 20260509035004 | 73 | 117 | 1.0 | 4.0 | 0.00 | 0.00 | 0.00 | 91 | 1010.3 |
| 20260509034517 | 73 | 117 | 0.0 | 3.0 | 0.00 | 0.00 | 0.00 | 91 | 1010.3 |
| 20260509034004 | 73 | 116 | 0.0 | 4.0 | 0.00 | 0.00 | 0.00 | 90 | 1010.1 |
| 20260509033503 | 73 | 115 | 1.0 | 4.0 | 0.00 | 0.00 | 0.00 | 90 | 1010.1 |
| 20260509033004 | 73 | 130 | 1.0 | 3.0 | 0.00 | 0.00 | 0.00 | 90 | 1010.0 |
| 20260509032505 | 73 | 130 | 1.0 | 4.0 | 0.00 | 0.00 | 0.00 | 90 | 1010.0 |
| 20260509032005 | 73 | 130 | 1.0 | 4.0 | 0.00 | 0.00 | 0.00 | 90 | 1010.0 |
| 20260509031505 | 73 | 118 | 0.0 | 3.0 | 0.00 | 0.00 | 0.00 | 90 | 1010.0 |
| 20260509031003 | 73 | 118 | 1.0 | 3.0 | 0.00 | 0.00 | 0.00 | 90 | 1010.1 |
| 20260509030503 | 73 | 118 | 1.0 | 3.0 | 0.00 | 0.00 | 0.00 | 90 | 1010.0 |
| 20260509030002 | 73 | 119 | 1.0 | 3.0 | 0.00 | 0.00 | 0.00 | 90 | 1009.8 |
| 20260509025503 | 73 | 118 | 1.0 | 3.0 | 0.00 | 0.00 | 0.00 | 90 | 1010.0 |
| 20260509025003 | 73 | 118 | 1.0 | 3.0 | 0.00 | 0.00 | 0.00 | 90 | 1010.1 |
| 20260509024502 | 73 | 123 | 0.0 | 3.0 | 0.00 | 0.00 | 0.00 | 89 | 1010.1 |
| 20260509024005 | 73 | 123 | 1.0 | 3.0 | 0.00 | 0.00 | 0.00 | 89 | 1009.9 |
| 20260509023501 | 73 | 123 | 0.0 | 4.0 | 0.00 | 0.00 | 0.00 | 89 | 1009.9 |
| 20260509023002 | 73 | 123 | 1.0 | 4.0 | 0.00 | 0.00 | 0.00 | 89 | 1009.7 |
| 20260509022502 | 73 | 127 | 1.0 | 3.0 | 0.00 | 0.00 | 0.00 | 89 | 1009.7 |
| 20260509022002 | 73 | 94 | 1.0 | 3.0 | 0.00 | 0.00 | 0.00 | 89 | 1009.7 |
| 20260509021502 | 73 | 90 | 0.0 | 3.0 | 0.00 | 0.00 | 0.00 | 89 | 1009.6 |
| 20260509021001 | 73 | 90 | 1.0 | 3.0 | 0.00 | 0.00 | 0.00 | 89 | 1009.3 |
| 20260509020500 | 73 | 90 | 0.0 | 3.0 | 0.00 | 0.00 | 0.00 | 89 | 1009.3 |
| 20260509020001 | 73 | 94 | 0.0 | 3.0 | 0.00 | 0.00 | 0.00 | 89 | 1009.3 |
| 20260509015601 | 73 | 94 | 0.0 | 3.0 | 0.00 | 0.00 | 0.00 | 89 | 1009.3 |
| 20260509015101 | 73 | 94 | 0.0 | 3.0 | 0.00 | 0.00 | 0.00 | 89 | 1009.4 |
| 20260509014600 | 73 | 94 | 1.0 | 3.0 | 0.00 | 0.00 | 0.00 | 89 | 1009.3 |
| 20260509014100 | 73 | 94 | 0.0 | 3.0 | 0.00 | 0.00 | 0.00 | 89 | 1009.3 |
| 20260509013559 | 73 | 92 | 0.0 | 7.0 | 0.00 | 0.00 | 0.00 | 89 | 1009.2 |